Time;durP1;ratioP1;P1;durP2;ratioP2;P2;SDS_P1;SDS_P2;PMS_P1;PMS_P2;Temp;Humidity;BMP_temperature;BMP_pressure;BME280_temperature;BME280_humidity;BME280_pressure;Samples;Min_cycle;Max_cycle;Signal;HPM_P1;HPM_P2
2021/03/13 00:01:15;;;;;;;4.10;0.95;;;5.90;99.90;;;;;;4903526;29;20116;-90
2021/03/13 00:03:41;;;;;;;3.42;1.27;;;6.00;99.90;;;;;;4903877;29;20032;-91
2021/03/13 00:06:07;;;;;;;2.53;1.00;;;5.90;99.90;;;;;;4920002;29;20080;-91
2021/03/13 00:08:37;;;;;;;4.10;1.13;;;6.10;99.90;;;;;;4903954;29;20024;-91
2021/03/13 00:11:04;;;;;;;4.30;0.90;;;6.10;99.90;;;;;;4903568;29;20024;-90
2021/03/13 00:13:30;;;;;;;3.70;1.25;;;6.30;99.90;;;;;;4903759;29;20508;-91
2021/03/13 00:15:56;;;;;;;3.33;1.00;;;6.50;99.90;;;;;;4903356;29;20186;-90
2021/03/13 00:18:22;;;;;;;3.25;1.30;;;6.50;99.90;;;;;;4903234;29;20051;-90
2021/03/13 00:20:48;;;;;;;4.00;1.70;;;6.50;99.90;;;;;;4903476;29;20031;-91
2021/03/13 00:23:14;;;;;;;2.97;1.17;;;6.40;99.90;;;;;;4920061;29;20035;-91
2021/03/13 00:25:41;;;;;;;4.63;1.30;;;6.40;99.90;;;;;;4903145;29;20032;-89
2021/03/13 00:28:08;;;;;;;2.63;1.10;;;6.50;99.90;;;;;;4902445;29;20121;-90
2021/03/13 00:30:45;;;;;;;3.03;1.00;;;6.30;99.90;;;;;;4902445;29;20028;-89
2021/03/13 00:33:19;;;;;;;4.68;0.73;;;6.00;99.90;;;;;;4902191;29;20032;-87
2021/03/13 00:35:48;;;;;;;2.67;1.00;;;5.60;99.90;;;;;;4902084;29;20028;-89
2021/03/13 00:38:14;;;;;;;2.45;0.80;;;5.40;99.90;;;;;;4902244;29;20051;-89
2021/03/13 00:40:41;;;;;;;2.10;0.85;;;5.40;99.90;;;;;;4902040;29;20063;-88
2021/03/13 00:43:09;;;;;;;4.43;1.08;;;5.40;99.90;;;;;;4902154;29;20115;-90
2021/03/13 00:45:35;;;;;;;3.53;1.10;;;5.20;99.90;;;;;;4901640;29;20028;-90
2021/03/13 00:48:02;;;;;;;3.88;0.95;;;5.20;99.90;;;;;;4901732;29;20028;-89
2021/03/13 00:50:30;;;;;;;1.65;0.63;;;5.20;99.90;;;;;;4901948;29;20401;-89
2021/03/13 00:52:57;;;;;;;7.05;1.05;;;5.30;99.90;;;;;;4901527;29;20063;-89
2021/03/13 00:55:23;;;;;;;2.20;0.80;;;5.30;99.90;;;;;;4901875;29;20040;-89
2021/03/13 00:57:49;;;;;;;1.42;0.50;;;5.40;99.90;;;;;;4901659;29;20021;-89
2021/03/13 01:00:19;;;;;;;2.13;0.60;;;5.30;99.90;;;;;;4901933;29;20028;-88
2021/03/13 01:02:45;;;;;;;1.33;0.50;;;5.30;99.90;;;;;;4901798;29;20114;-89
2021/03/13 01:05:11;;;;;;;1.05;0.70;;;5.20;99.90;;;;;;4902237;29;20079;-89
2021/03/13 01:07:38;;;;;;;1.52;0.70;;;5.20;99.90;;;;;;4901658;29;20032;-90
2021/03/13 01:10:30;;;;;;;1.98;0.73;;;5.40;99.90;;;;;;4901773;29;20035;-90
2021/03/13 01:12:56;;;;;;;1.15;0.47;;;5.20;99.90;;;;;;4893242;29;20048;-89
2021/03/13 01:15:23;;;;;;;1.08;0.60;;;5.20;99.90;;;;;;4901658;29;20505;-89
2021/03/13 01:17:49;;;;;;;1.05;0.60;;;5.20;99.90;;;;;;4901695;29;20076;-89
2021/03/13 01:20:16;;;;;;;0.80;0.60;;;5.10;99.90;;;;;;4918716;29;20472;-89
2021/03/13 01:22:44;;;;;;;3.55;0.75;;;5.20;99.90;;;;;;4901665;29;20024;-90
2021/03/13 01:25:11;;;;;;;1.27;0.60;;;5.10;99.90;;;;;;4901672;29;20025;-90
2021/03/13 01:27:38;;;;;;;1.70;0.80;;;5.10;99.90;;;;;;4901667;29;20024;-90
2021/03/13 01:30:13;;;;;;;0.80;0.60;;;5.10;99.90;;;;;;4901934;29;20032;-91
2021/03/13 01:32:39;;;;;;;0.63;0.60;;;5.10;99.90;;;;;;4902080;29;20556;-90
2021/03/13 01:35:06;;;;;;;0.95;0.70;;;4.90;99.90;;;;;;4902074;29;20115;-90
2021/03/13 01:37:32;;;;;;;0.63;0.52;;;4.90;99.90;;;;;;4902896;29;20028;-91
2021/03/13 01:39:58;;;;;;;3.90;0.88;;;5.00;99.90;;;;;;4902471;29;20445;-91
2021/03/13 01:42:23;;;;;;;1.42;0.80;;;4.80;99.90;;;;;;4902418;29;20052;-90
2021/03/13 01:44:49;;;;;;;2.72;0.88;;;4.80;99.90;;;;;;4902397;29;20032;-91
2021/03/13 01:47:29;;;;;;;1.75;0.80;;;4.90;99.90;;;;;;4902301;29;20060;-90
2021/03/13 01:49:57;;;;;;;2.15;0.68;;;4.90;99.90;;;;;;4902228;29;20120;-89
2021/03/13 01:52:22;;;;;;;4.05;0.80;;;4.80;99.90;;;;;;4902046;29;20087;-90
2021/03/13 01:54:49;;;;;;;2.97;0.95;;;4.80;99.90;;;;;;4901887;29;20031;-90
2021/03/13 01:57:16;;;;;;;2.38;0.90;;;4.80;99.90;;;;;;4901920;29;20024;-91
2021/03/13 01:59:42;;;;;;;3.17;0.85;;;5.00;99.90;;;;;;4918480;29;20036;-91
2021/03/13 02:02:10;;;;;;;3.22;1.00;;;5.00;99.90;;;;;;4902127;29;20039;-91
2021/03/13 02:04:37;;;;;;;5.30;1.20;;;5.10;99.90;;;;;;4902272;29;20491;-90
2021/03/13 02:07:28;;;;;;;4.45;1.00;;;5.30;99.90;;;;;;4901900;29;20083;-91
2021/03/13 02:10:26;;;;;;;5.28;1.20;;;5.30;99.90;;;;;;4901315;29;20051;-90
2021/03/13 02:13:18;;;;;;;5.13;1.10;;;5.30;99.90;;;;;;4901500;29;20028;-89
2021/03/13 02:15:51;;;;;;;8.35;1.20;;;5.30;99.90;;;;;;4901595;29;20548;-90
2021/03/13 02:18:54;;;;;;;10.27;1.40;;;5.30;99.90;;;;;;4901752;29;20066;-90
2021/03/13 02:21:35;;;;;;;6.93;1.20;;;5.40;99.90;;;;;;4851257;29;20476;-90
2021/03/13 02:24:20;;;;;;;5.35;1.55;;;5.40;99.90;;;;;;4901497;29;20031;-89
2021/03/13 02:27:10;;;;;;;6.38;1.17;;;5.50;99.90;;;;;;4904589;29;20564;-93
2021/03/13 02:29:51;;;;;;;7.50;1.15;;;5.50;99.90;;;;;;4905118;29;20028;-91
2021/03/13 02:32:41;;;;;;;7.28;1.65;;;5.50;99.90;;;;;;4905736;29;20028;-92
2021/03/13 02:35:18;;;;;;;3.70;1.02;;;5.60;99.90;;;;;;4904899;29;20038;-92
2021/03/13 02:37:48;;;;;;;6.93;1.15;;;5.60;99.90;;;;;;4919189;29;20028;-92
2021/03/13 02:40:18;;;;;;;4.50;1.20;;;5.60;99.90;;;;;;4922009;29;20059;-92
2021/03/13 02:42:59;;;;;;;7.60;1.77;;;5.60;99.90;;;;;;4905315;29;20370;-92
2021/03/13 02:45:35;;;;;;;4.80;1.98;;;5.60;99.90;;;;;;4905394;29;20028;-91
2021/03/13 02:48:04;;;;;;;5.45;1.30;;;5.60;99.90;;;;;;4905055;29;20426;-90
2021/03/13 02:50:32;;;;;;;3.75;1.10;;;5.70;99.90;;;;;;4922102;29;20031;-92
2021/03/13 02:52:58;;;;;;;9.35;1.30;;;5.70;99.90;;;;;;4905081;29;20468;-93
2021/03/13 02:55:26;;;;;;;7.82;1.38;;;5.70;99.90;;;;;;4904902;29;20036;-93
2021/03/13 02:57:55;;;;;;;6.75;1.42;;;5.70;99.90;;;;;;4905244;29;20028;-92
2021/03/13 03:00:23;;;;;;;7.78;2.10;;;5.70;99.90;;;;;;4905236;29;20020;-91
2021/03/13 03:02:54;;;;;;;6.95;1.40;;;5.70;99.90;;;;;;4905237;29;20024;-92
2021/03/13 03:05:22;;;;;;;8.40;1.30;;;5.80;99.90;;;;;;4904928;29;20083;-92
2021/03/13 03:07:52;;;;;;;5.43;1.10;;;5.80;99.90;;;;;;4904772;29;20071;-92
2021/03/13 03:10:20;;;;;;;3.15;1.08;;;5.80;99.90;;;;;;4904879;29;20036;-92
2021/03/13 03:12:50;;;;;;;8.23;1.33;;;5.80;99.90;;;;;;4905114;29;20087;-92
2021/03/13 03:15:20;;;;;;;5.43;1.40;;;5.90;99.90;;;;;;4904507;29;20396;-92
2021/03/13 03:17:47;;;;;;;7.85;1.42;;;5.90;99.90;;;;;;4905433;29;20020;-91
2021/03/13 03:20:14;;;;;;;6.18;1.20;;;5.90;99.90;;;;;;4889153;29;20473;-92
2021/03/13 03:22:40;;;;;;;3.03;1.08;;;5.80;99.90;;;;;;4904526;29;20024;-89
2021/03/13 03:25:08;;;;;;;5.00;1.40;;;5.90;99.90;;;;;;4904540;29;20543;-92
2021/03/13 03:27:49;;;;;;;6.10;1.35;;;5.80;99.90;;;;;;4920809;29;20035;-91
2021/03/13 03:30:25;;;;;;;6.95;1.33;;;5.90;99.90;;;;;;4904148;29;20035;-91
2021/03/13 03:32:50;;;;;;;3.88;1.13;;;5.90;99.90;;;;;;4903910;29;20032;-91
2021/03/13 03:35:18;;;;;;;5.90;1.08;;;5.80;99.90;;;;;;4903650;29;20087;-91
2021/03/13 03:37:45;;;;;;;2.50;1.17;;;5.90;99.90;;;;;;4903326;29;20460;-88
2021/03/13 03:40:13;;;;;;;6.18;1.38;;;5.90;99.90;;;;;;4903935;29;20025;-92
2021/03/13 03:42:46;;;;;;;4.47;1.05;;;5.90;99.90;;;;;;4903895;29;20425;-90
2021/03/13 03:45:16;;;;;;;2.13;1.00;;;5.90;99.90;;;;;;4903681;29;20106;-89
2021/03/13 03:47:42;;;;;;;5.75;1.20;;;6.00;99.90;;;;;;4903655;29;20051;-92
2021/03/13 03:50:11;;;;;;;6.35;0.98;;;5.90;99.90;;;;;;4903837;29;20028;-87
2021/03/13 03:52:38;;;;;;;3.25;1.05;;;5.90;99.90;;;;;;4903337;29;20134;-89
2021/03/13 03:55:04;;;;;;;5.05;1.08;;;5.90;99.90;;;;;;4903233;29;20032;-90
2021/03/13 03:57:31;;;;;;;3.40;1.00;;;5.90;99.90;;;;;;4903165;29;20449;-88
2021/03/13 03:59:58;;;;;;;2.55;0.98;;;5.90;99.90;;;;;;4903499;29;20024;-91
2021/03/13 04:02:25;;;;;;;8.43;1.27;;;5.90;99.90;;;;;;4903281;29;20393;-91
2021/03/13 04:04:53;;;;;;;3.97;0.90;;;5.90;99.90;;;;;;4903178;29;20028;-92
2021/03/13 04:07:19;;;;;;;4.38;1.20;;;5.90;99.90;;;;;;4903507;29;20032;-88
2021/03/13 04:09:48;;;;;;;2.50;0.90;;;5.80;99.90;;;;;;4903307;29;20462;-90
2021/03/13 04:12:15;;;;;;;3.22;1.52;;;5.80;99.90;;;;;;4903254;29;20388;-91
2021/03/13 04:14:42;;;;;;;3.08;1.25;;;5.80;99.90;;;;;;4903266;29;20034;-91
2021/03/13 04:17:09;;;;;;;3.10;1.00;;;5.90;99.90;;;;;;4902984;29;20024;-90
2021/03/13 04:19:35;;;;;;;3.97;1.10;;;5.80;99.90;;;;;;4903103;29;20362;-91
2021/03/13 04:22:01;;;;;;;6.00;1.50;;;5.80;99.90;;;;;;4902547;29;20024;-92
2021/03/13 04:24:27;;;;;;;2.15;0.80;;;5.80;99.90;;;;;;4902971;29;20031;-89
2021/03/13 04:26:54;;;;;;;3.55;0.98;;;5.80;99.90;;;;;;4903452;29;20043;-90
2021/03/13 04:29:20;;;;;;;4.53;1.02;;;5.80;99.90;;;;;;4903116;29;20047;-91
2021/03/13 04:31:46;;;;;;;6.57;1.35;;;5.80;99.90;;;;;;4903354;29;20069;-89
2021/03/13 04:34:13;;;;;;;3.35;0.90;;;5.80;99.90;;;;;;4902860;29;20173;-90
2021/03/13 04:36:39;;;;;;;6.53;1.10;;;5.80;99.90;;;;;;4902587;29;20504;-89
2021/03/13 04:39:07;;;;;;;3.08;1.30;;;5.80;99.90;;;;;;4902527;29;20440;-90
2021/03/13 04:41:35;;;;;;;4.50;1.00;;;5.70;99.90;;;;;;4902477;29;20560;-90
2021/03/13 04:44:01;;;;;;;7.15;1.20;;;5.80;99.90;;;;;;4919299;29;20040;-89
2021/03/13 04:46:27;;;;;;;6.15;1.20;;;5.70;99.90;;;;;;4902358;29;20027;-90
2021/03/13 04:48:53;;;;;;;4.15;1.08;;;5.70;99.90;;;;;;4901855;29;20055;-90
2021/03/13 04:51:19;;;;;;;8.48;0.98;;;5.70;99.90;;;;;;4902150;29;20085;-91
2021/03/13 04:53:46;;;;;;;4.72;0.80;;;5.70;99.90;;;;;;4902364;29;20056;-90
2021/03/13 04:56:12;;;;;;;9.13;1.13;;;5.70;99.90;;;;;;4901971;29;20473;-89
2021/03/13 04:58:38;;;;;;;3.40;0.98;;;5.80;99.90;;;;;;4919279;29;20027;-91
2021/03/13 05:01:04;;;;;;;4.95;1.17;;;5.80;99.90;;;;;;4919181;29;20024;-90
2021/03/13 05:03:30;;;;;;;6.22;1.40;;;5.80;99.90;;;;;;4902072;29;20027;-90
2021/03/13 05:05:56;;;;;;;6.03;1.13;;;5.80;99.90;;;;;;4902397;29;20039;-90
2021/03/13 05:08:21;;;;;;;4.05;1.15;;;5.80;99.90;;;;;;4902150;29;20095;-91
2021/03/13 05:10:47;;;;;;;5.13;1.23;;;5.80;99.90;;;;;;4902118;29;20024;-90
2021/03/13 05:13:14;;;;;;;8.77;1.33;;;5.80;99.90;;;;;;4886614;29;20032;-90
2021/03/13 05:15:40;;;;;;;4.32;1.10;;;5.90;99.90;;;;;;4901890;29;20043;-89
2021/03/13 05:18:06;;;;;;;4.13;1.02;;;5.90;99.90;;;;;;4902079;29;20387;-89
2021/03/13 05:20:32;;;;;;;2.72;0.90;;;6.00;99.90;;;;;;4902017;29;20031;-91
2021/03/13 05:22:58;;;;;;;6.25;1.00;;;6.00;99.90;;;;;;4902209;29;20035;-90
2021/03/13 05:25:24;;;;;;;3.67;0.85;;;6.00;99.90;;;;;;4901874;29;20381;-89
2021/03/13 05:27:49;;;;;;;2.13;0.98;;;6.00;99.90;;;;;;4901850;29;20039;-90
2021/03/13 05:30:16;;;;;;;3.13;0.98;;;6.00;99.90;;;;;;4902024;29;20032;-90
2021/03/13 05:32:42;;;;;;;4.60;1.10;;;6.00;99.90;;;;;;4902177;29;20028;-90
2021/03/13 05:35:10;;;;;;;4.70;1.20;;;6.10;99.90;;;;;;4902090;29;20032;-90
2021/03/13 05:37:36;;;;;;;2.45;0.73;;;6.10;99.90;;;;;;4902062;29;20024;-90
2021/03/13 05:40:04;;;;;;;2.38;0.80;;;6.10;99.90;;;;;;4901684;29;20362;-89
2021/03/13 05:42:30;;;;;;;5.20;1.10;;;6.10;99.90;;;;;;4901084;29;20091;-90
2021/03/13 05:44:57;;;;;;;4.72;1.10;;;6.10;99.90;;;;;;4901998;29;20020;-89
2021/03/13 05:47:23;;;;;;;4.38;1.13;;;6.20;99.90;;;;;;4901752;29;20058;-90
2021/03/13 05:50:01;;;;;;;6.28;1.25;;;6.10;99.90;;;;;;4901745;29;20032;-87
2021/03/13 05:52:33;;;;;;;4.18;1.25;;;6.20;99.90;;;;;;4918243;29;20056;-87
2021/03/13 05:54:59;;;;;;;4.32;0.85;;;6.20;99.90;;;;;;4901734;29;20028;-90
2021/03/13 05:57:25;;;;;;;6.00;1.50;;;6.20;99.90;;;;;;4901843;29;20028;-91
2021/03/13 05:59:51;;;;;;;5.28;1.48;;;6.20;99.90;;;;;;4902995;29;20564;-90
2021/03/13 06:02:18;;;;;;;8.52;1.30;;;6.30;99.90;;;;;;4905415;29;20028;-91
2021/03/13 06:04:45;;;;;;;7.97;1.52;;;6.30;99.90;;;;;;4905483;29;20555;-90
2021/03/13 06:07:14;;;;;;;6.68;1.30;;;6.30;99.90;;;;;;4905439;29;20024;-91
2021/03/13 06:09:41;;;;;;;9.45;1.42;;;6.30;99.90;;;;;;4905495;29;20028;-90
2021/03/13 06:12:07;;;;;;;6.85;1.60;;;6.40;99.90;;;;;;4905276;29;20032;-91
2021/03/13 06:14:33;;;;;;;4.70;1.15;;;6.40;99.90;;;;;;4905122;29;20036;-91
2021/03/13 06:17:00;;;;;;;8.90;2.28;;;6.40;99.90;;;;;;4889907;29;20547;-89
2021/03/13 06:19:47;;;;;;;7.90;1.40;;;6.40;99.90;;;;;;4905191;29;20055;-89
2021/03/13 06:22:37;;;;;;;5.20;1.25;;;6.40;99.90;;;;;;4922260;29;20039;-90
2021/03/13 06:25:16;;;;;;;4.68;1.13;;;6.50;99.90;;;;;;4905159;29;20076;-91
2021/03/13 06:28:06;;;;;;;7.07;1.13;;;6.50;99.90;;;;;;4905150;29;20028;-91
2021/03/13 06:30:40;;;;;;;7.95;1.88;;;6.50;99.90;;;;;;4905508;29;20028;-91
2021/03/13 06:33:33;;;;;;;8.57;1.63;;;6.50;99.90;;;;;;4905028;29;20055;-88
2021/03/13 06:36:04;;;;;;;4.30;1.10;;;6.50;99.90;;;;;;4904914;29;20032;-91
2021/03/13 06:38:32;;;;;;;6.18;1.20;;;6.60;99.90;;;;;;4904886;29;20025;-89
2021/03/13 06:41:15;;;;;;;6.13;1.27;;;6.50;99.90;;;;;;4905115;29;20035;-90
2021/03/13 06:43:41;;;;;;;9.85;1.45;;;6.60;99.90;;;;;;4904694;29;20028;-91
2021/03/13 06:46:07;;;;;;;6.20;1.27;;;6.60;99.90;;;;;;4904425;29;20028;-91
2021/03/13 06:48:44;;;;;;;8.38;1.67;;;6.60;99.90;;;;;;4904994;29;20044;-90
2021/03/13 06:51:14;;;;;;;4.13;1.60;;;6.70;99.90;;;;;;4904774;29;20087;-88
2021/03/13 06:53:40;;;;;;;8.10;1.42;;;6.70;99.90;;;;;;4904799;29;20052;-88
2021/03/13 06:56:10;;;;;;;5.50;1.33;;;6.80;99.90;;;;;;4904858;29;20032;-88
2021/03/13 06:58:37;;;;;;;5.90;1.10;;;6.80;99.90;;;;;;4904312;29;20028;-90
2021/03/13 07:01:05;;;;;;;6.28;0.98;;;6.90;99.90;;;;;;4904766;29;20079;-88
2021/03/13 07:03:31;;;;;;;5.90;1.50;;;6.80;99.90;;;;;;4903713;29;20024;-87
2021/03/13 07:05:57;;;;;;;5.00;1.15;;;6.80;99.90;;;;;;4920551;29;20043;-88
2021/03/13 07:08:32;;;;;;;5.10;0.93;;;6.80;99.90;;;;;;4903664;29;20121;-88
2021/03/13 07:11:08;;;;;;;4.40;0.90;;;6.90;99.90;;;;;;4903156;29;20092;-86
2021/03/13 07:13:39;;;;;;;6.75;1.10;;;7.00;99.90;;;;;;4903821;29;20484;-88
2021/03/13 07:16:27;;;;;;;4.63;1.08;;;6.90;99.90;;;;;;4904671;29;20028;-88
2021/03/13 07:19:03;;;;;;;4.63;0.98;;;7.00;99.90;;;;;;4903773;29;20455;-89
2021/03/13 07:21:30;;;;;;;4.65;0.93;;;7.00;99.90;;;;;;4904376;29;20032;-89
2021/03/13 07:24:07;;;;;;;4.63;1.15;;;7.00;99.90;;;;;;4903708;29;20032;-90
2021/03/13 07:26:38;;;;;;;8.18;1.10;;;7.00;99.90;;;;;;4904835;29;20028;-92
2021/03/13 07:29:06;;;;;;;4.50;0.98;;;7.10;99.90;;;;;;4903909;29;20035;-91
2021/03/13 07:31:39;;;;;;;2.92;0.73;;;7.00;99.90;;;;;;4903962;29;20039;-91
2021/03/13 07:34:10;;;;;;;9.30;0.95;;;7.10;99.90;;;;;;4904914;29;20087;-90
2021/03/13 07:36:41;;;;;;;5.43;1.08;;;7.10;99.90;;;;;;4903591;29;20031;-89
2021/03/13 07:39:18;;;;;;;3.72;1.05;;;7.20;99.90;;;;;;4903343;29;20087;-88
2021/03/13 07:42:00;;;;;;;5.65;0.90;;;7.30;99.90;;;;;;4904270;29;20032;-89
2021/03/13 07:44:27;;;;;;;5.68;0.90;;;7.30;99.90;;;;;;4903953;29;20067;-91
2021/03/13 07:46:53;;;;;;;2.33;1.00;;;7.40;99.90;;;;;;4903337;29;20083;-88
2021/03/13 07:49:21;;;;;;;6.35;0.90;;;7.40;99.90;;;;;;4903247;29;20539;-91
2021/03/13 07:51:47;;;;;;;2.17;0.63;;;7.30;99.90;;;;;;4902933;29;20392;-90
2021/03/13 07:54:15;;;;;;;4.15;0.80;;;7.40;99.90;;;;;;4920236;29;20048;-89
2021/03/13 07:56:43;;;;;;;2.33;0.80;;;7.50;99.90;;;;;;4920138;29;20032;-87
2021/03/13 07:59:10;;;;;;;4.57;1.10;;;7.50;99.90;;;;;;4903762;29;20111;-88
2021/03/13 08:01:46;;;;;;;2.63;0.80;;;7.60;99.90;;;;;;4902790;29;20048;-88
2021/03/13 08:04:37;;;;;;;3.97;0.90;;;7.80;99.90;;;;;;4919083;29;20039;-88
2021/03/13 08:07:06;;;;;;;4.32;0.88;;;7.90;99.90;;;;;;4902318;29;20028;-88
2021/03/13 08:09:32;;;;;;;2.28;0.80;;;7.90;99.90;;;;;;4919518;29;20048;-87
2021/03/13 08:12:00;;;;;;;5.55;1.23;;;7.80;99.90;;;;;;4902128;29;20076;-88
2021/03/13 08:14:34;;;;;;;2.75;0.57;;;7.70;99.90;;;;;;4902063;29;20120;-89
2021/03/13 08:17:13;;;;;;;1.45;0.52;;;7.60;99.90;;;;;;4902405;29;20020;-86
2021/03/13 08:19:42;;;;;;;2.17;1.30;;;7.50;99.90;;;;;;4919344;29;20468;-90
2021/03/13 08:22:10;;;;;;;2.50;0.80;;;7.60;99.90;;;;;;4902300;29;20027;-88
2021/03/13 08:24:58;;;;;;;3.30;0.80;;;7.70;99.90;;;;;;4902254;29;20388;-87
2021/03/13 08:27:33;;;;;;;3.05;0.80;;;7.90;99.90;;;;;;4901792;29;20024;-87
2021/03/13 08:29:59;;;;;;;1.95;0.75;;;8.10;99.90;;;;;;4901783;29;20119;-90
2021/03/13 08:33:00;;;;;;;3.85;0.80;;;8.20;99.90;;;;;;4917614;29;20040;-88
2021/03/13 08:35:32;;;;;;;6.50;0.80;;;8.40;99.90;;;;;;4901590;29;20032;-89
2021/03/13 08:37:57;;;;;;;3.78;0.70;;;8.60;99.90;;;;;;4901693;29;20384;-90
2021/03/13 08:40:24;;;;;;;4.22;1.05;;;8.70;99.90;;;;;;4902211;29;20028;-89
2021/03/13 08:42:50;;;;;;;1.88;0.70;;;8.80;99.90;;;;;;4901560;29;20480;-87
2021/03/13 08:45:18;;;;;;;4.53;0.80;;;8.70;99.90;;;;;;4901359;29;20064;-87
2021/03/13 08:47:51;;;;;;;5.15;0.88;;;8.70;99.90;;;;;;4901756;29;20032;-83
2021/03/13 08:50:54;;;;;;;2.13;0.82;;;8.60;99.90;;;;;;4918170;29;20037;-87
2021/03/13 08:53:34;;;;;;;2.42;0.65;;;8.60;99.90;;;;;;4917939;29;20134;-88
2021/03/13 08:56:00;;;;;;;3.03;0.57;;;8.60;99.90;;;;;;4918048;29;20025;-86
2021/03/13 08:58:43;;;;;;;3.15;0.90;;;8.70;99.90;;;;;;4918043;29;20033;-88
2021/03/13 09:01:20;;;;;;;2.38;0.73;;;8.80;99.90;;;;;;4901019;29;20072;-89
2021/03/13 09:03:51;;;;;;;6.75;1.05;;;8.90;99.90;;;;;;4900985;29;20115;-86
2021/03/13 09:06:21;;;;;;;3.20;0.88;;;8.80;99.90;;;;;;4918211;29;20059;-86
2021/03/13 09:08:48;;;;;;;4.03;0.93;;;8.80;99.90;;;;;;4901245;29;20114;-89
2021/03/13 09:11:28;;;;;;;3.55;0.70;;;8.80;99.90;;;;;;4901213;29;20036;-89
2021/03/13 09:14:01;;;;;;;3.53;0.93;;;8.80;99.90;;;;;;4901168;29;20031;-89
2021/03/13 09:16:27;;;;;;;5.75;1.10;;;8.80;99.90;;;;;;4900967;29;20031;-89
2021/03/13 09:18:56;;;;;;;6.30;1.25;;;8.80;99.90;;;;;;4900978;29;20028;-91
2021/03/13 09:21:48;;;;;;;6.60;1.13;;;8.80;99.90;;;;;;4917710;29;20544;-89
2021/03/13 09:24:16;;;;;;;2.75;0.52;;;8.80;99.90;;;;;;4901102;29;20052;-87
2021/03/13 09:26:46;;;;;;;3.08;0.63;;;8.80;99.90;;;;;;4900862;29;20425;-88
2021/03/13 09:29:12;;;;;;;2.50;0.85;;;8.80;99.90;;;;;;4917346;29;20548;-86
2021/03/13 09:31:38;;;;;;;2.28;0.70;;;8.80;99.90;;;;;;4900569;29;20047;-87
2021/03/13 09:34:18;;;;;;;2.65;0.93;;;8.90;99.90;;;;;;4899994;29;20028;-91
2021/03/13 09:36:46;;;;;;;4.03;1.00;;;9.00;99.90;;;;;;4917560;29;20024;-86
2021/03/13 09:39:28;;;;;;;4.65;0.95;;;9.00;99.90;;;;;;4900724;29;20032;-89
2021/03/13 09:42:23;;;;;;;3.03;0.80;;;8.90;99.90;;;;;;4917346;29;20043;-89
2021/03/13 09:44:51;;;;;;;3.92;0.90;;;9.00;99.90;;;;;;4898453;29;20044;-87
2021/03/13 09:47:38;;;;;;;3.42;0.50;;;9.00;99.90;;;;;;4900732;29;20376;-90
2021/03/13 09:50:16;;;;;;;4.25;0.63;;;8.90;99.90;;;;;;4900471;29;20032;-89
2021/03/13 09:52:47;;;;;;;2.50;0.52;;;9.00;99.90;;;;;;4900336;29;20409;-89
2021/03/13 09:55:17;;;;;;;6.10;1.10;;;8.90;99.90;;;;;;4900507;29;20032;-89
2021/03/13 09:57:49;;;;;;;2.17;0.70;;;8.90;99.90;;;;;;4900999;29;20036;-87
2021/03/13 10:00:24;;;;;;;2.30;0.70;;;8.90;99.90;;;;;;4900532;29;20079;-89
2021/03/13 10:02:51;;;;;;;5.45;1.00;;;8.90;99.90;;;;;;4900416;29;20543;-88
2021/03/13 10:05:19;;;;;;;3.88;0.63;;;8.90;99.90;;;;;;4900436;29;20028;-89
2021/03/13 10:07:47;;;;;;;3.83;0.70;;;9.00;99.90;;;;;;4900479;29;20024;-87
2021/03/13 10:10:21;;;;;;;5.05;1.05;;;9.00;99.90;;;;;;4917427;29;20035;-89
2021/03/13 10:12:50;;;;;;;1.15;0.52;;;9.00;99.90;;;;;;4900642;29;20030;-84
2021/03/13 10:15:36;;;;;;;6.93;0.85;;;9.00;99.90;;;;;;4900400;29;20028;-87
2021/03/13 10:18:05;;;;;;;2.65;0.80;;;9.00;99.90;;;;;;4900466;29;20036;-90
2021/03/13 10:20:42;;;;;;;3.92;0.65;;;9.00;99.90;;;;;;4917470;29;20024;-89
2021/03/13 10:23:13;;;;;;;6.28;0.80;;;9.00;99.90;;;;;;4900794;29;20020;-91
2021/03/13 10:25:41;;;;;;;4.80;0.73;;;9.00;99.90;;;;;;4900429;29;20056;-89
2021/03/13 10:28:11;;;;;;;3.90;0.80;;;9.00;99.90;;;;;;4900281;29;20120;-88
2021/03/13 10:30:39;;;;;;;1.70;0.60;;;9.10;99.90;;;;;;4917271;29;20477;-89
2021/03/13 10:33:05;;;;;;;2.95;0.52;;;9.10;99.90;;;;;;4900308;29;20052;-89
2021/03/13 10:35:33;;;;;;;4.93;0.90;;;9.10;99.90;;;;;;4900791;29;20122;-88
2021/03/13 10:38:03;;;;;;;1.27;0.47;;;9.10;99.90;;;;;;4900360;29;20021;-87
2021/03/13 10:41:14;;;;;;;4.75;0.70;;;9.10;99.90;;;;;;4900177;29;20135;-88
2021/03/13 10:43:40;;;;;;;8.35;0.80;;;9.10;99.90;;;;;;4822900;29;20065;-88
2021/03/13 10:46:14;;;;;;;1.08;0.50;;;9.10;99.90;;;;;;4822459;29;20049;-87
2021/03/13 10:48:51;;;;;;;1.60;0.60;;;9.10;99.90;;;;;;4878580;29;20068;-87
2021/03/13 10:51:46;;;;;;;3.55;0.80;;;9.10;99.90;;;;;;4903592;29;20054;-90
2021/03/13 10:54:19;;;;;;;2.03;0.57;;;9.20;99.90;;;;;;4904190;29;20052;-91
2021/03/13 10:56:45;;;;;;;6.53;0.65;;;9.10;99.90;;;;;;4920413;29;20031;-87
2021/03/13 10:59:11;;;;;;;3.63;0.57;;;9.20;99.90;;;;;;4903665;29;20032;-87
2021/03/13 11:01:41;;;;;;;2.63;0.68;;;9.20;99.90;;;;;;4903579;29;20059;-87
2021/03/13 11:04:07;;;;;;;3.20;0.70;;;9.20;99.90;;;;;;4903428;29;20048;-92
2021/03/13 11:06:35;;;;;;;4.45;0.70;;;9.20;99.90;;;;;;4919385;29;20499;-90
2021/03/13 11:09:11;;;;;;;3.80;1.10;;;9.20;99.90;;;;;;4919759;29;20032;-90
2021/03/13 11:11:38;;;;;;;1.90;0.70;;;9.20;99.90;;;;;;4903684;29;20070;-88
2021/03/13 11:14:09;;;;;;;2.70;0.85;;;9.20;99.90;;;;;;4903091;29;20032;-89
2021/03/13 11:16:35;;;;;;;2.10;0.70;;;9.20;99.90;;;;;;4903032;29;20123;-88
2021/03/13 11:19:01;;;;;;;2.25;0.43;;;9.20;99.90;;;;;;4887423;29;20033;-87
2021/03/13 11:21:27;;;;;;;2.60;0.75;;;9.20;99.90;;;;;;4903146;29;20031;-87
2021/03/13 11:23:54;;;;;;;2.35;0.75;;;9.10;99.90;;;;;;4902966;29;20476;-87
2021/03/13 11:26:20;;;;;;;1.88;0.63;;;9.10;99.90;;;;;;4903283;29;20468;-89
2021/03/13 11:28:47;;;;;;;2.70;0.52;;;9.10;99.90;;;;;;4903078;29;20087;-86
2021/03/13 11:31:13;;;;;;;4.57;0.50;;;9.10;99.90;;;;;;4920060;29;20043;-91
2021/03/13 11:33:39;;;;;;;1.60;0.60;;;9.00;99.90;;;;;;4903455;29;20392;-90
2021/03/13 11:36:06;;;;;;;2.55;0.70;;;9.00;99.90;;;;;;4903031;29;20024;-86
2021/03/13 11:38:32;;;;;;;1.30;0.60;;;9.00;99.90;;;;;;4902974;29;20024;-89
2021/03/13 11:40:59;;;;;;;5.47;0.88;;;9.10;99.90;;;;;;4903398;29;20500;-91
2021/03/13 11:43:25;;;;;;;1.30;0.50;;;9.20;99.90;;;;;;4903127;29;20024;-90
2021/03/13 11:45:51;;;;;;;3.75;1.00;;;9.10;99.90;;;;;;4921328;29;20028;-90
2021/03/13 11:48:18;;;;;;;1.58;0.65;;;9.20;99.90;;;;;;4903889;29;20044;-92
2021/03/13 11:50:44;;;;;;;1.10;0.50;;;9.30;99.90;;;;;;4903279;29;20115;-89
2021/03/13 11:53:10;;;;;;;1.27;0.65;;;9.30;99.90;;;;;;4902838;29;20485;-88
2021/03/13 11:55:36;;;;;;;2.58;0.45;;;9.20;99.90;;;;;;4902709;29;20028;-90
2021/03/13 11:58:01;;;;;;;2.85;0.70;;;9.10;99.90;;;;;;4919860;29;20104;-91
2021/03/13 12:00:27;;;;;;;2.63;0.50;;;9.10;99.90;;;;;;4902660;29;20020;-91
2021/03/13 12:02:53;;;;;;;1.58;0.45;;;8.90;99.90;;;;;;4902828;29;20028;-93
2021/03/13 12:05:18;;;;;;;0.75;0.38;;;8.80;99.90;;;;;;4919458;29;20036;-88
2021/03/13 12:07:45;;;;;;;2.60;0.50;;;8.80;99.90;;;;;;4902359;29;20028;-90
2021/03/13 12:10:11;;;;;;;2.05;0.75;;;8.70;99.90;;;;;;4902291;29;20032;-88
2021/03/13 12:12:37;;;;;;;1.50;0.68;;;8.60;99.90;;;;;;4902460;29;20044;-91
2021/03/13 12:15:08;;;;;;;4.03;0.60;;;8.60;99.90;;;;;;4902416;29;20052;-91
2021/03/13 12:17:35;;;;;;;2.42;0.63;;;8.50;99.90;;;;;;4902251;29;20480;-89
2021/03/13 12:20:01;;;;;;;1.83;0.60;;;8.50;99.90;;;;;;4902300;29;20154;-89
2021/03/13 12:22:27;;;;;;;2.33;0.85;;;8.30;99.90;;;;;;4901905;29;20024;-88
2021/03/13 12:24:54;;;;;;;2.28;0.60;;;8.20;99.90;;;;;;4902408;29;20401;-91
2021/03/13 12:27:20;;;;;;;5.60;1.25;;;8.10;99.90;;;;;;4901814;29;20028;-87
2021/03/13 12:29:46;;;;;;;3.35;0.70;;;8.20;99.90;;;;;;4902017;29;20028;-89
2021/03/13 12:32:12;;;;;;;2.03;0.77;;;8.10;99.90;;;;;;4901835;29;20028;-87
2021/03/13 12:34:37;;;;;;;2.70;0.70;;;8.20;99.90;;;;;;4902018;29;20032;-89
2021/03/13 12:37:04;;;;;;;1.80;0.60;;;8.30;99.90;;;;;;4901976;29;20441;-88
2021/03/13 12:39:29;;;;;;;3.58;0.70;;;8.20;99.90;;;;;;4901621;29;20029;-89
2021/03/13 12:41:57;;;;;;;7.05;1.02;;;8.20;99.90;;;;;;4901831;29;20027;-90
2021/03/13 12:44:22;;;;;;;2.05;0.82;;;8.30;99.90;;;;;;4901818;29;20469;-90
2021/03/13 12:46:48;;;;;;;2.10;0.88;;;8.30;99.90;;;;;;4901577;29;20032;-89
2021/03/13 12:49:14;;;;;;;1.90;0.85;;;8.40;99.90;;;;;;4901824;29;20031;-90
2021/03/13 12:51:40;;;;;;;3.05;0.70;;;8.40;99.90;;;;;;4901531;29;20115;-90
2021/03/13 12:54:06;;;;;;;1.70;0.70;;;8.30;99.90;;;;;;4901049;29;20055;-88
2021/03/13 12:56:31;;;;;;;2.13;0.63;;;8.30;99.90;;;;;;4901962;29;20079;-89
2021/03/13 12:58:57;;;;;;;2.10;0.88;;;8.20;99.90;;;;;;4901428;29;20024;-88
2021/03/13 13:01:23;;;;;;;4.47;0.80;;;8.00;99.90;;;;;;4918725;29;20024;-89
2021/03/13 13:03:56;;;;;;;3.70;0.70;;;7.90;99.90;;;;;;4901446;29;20032;-86
2021/03/13 13:06:24;;;;;;;3.00;0.77;;;7.60;99.90;;;;;;4901284;29;20115;-90
2021/03/13 13:08:50;;;;;;;3.65;1.05;;;7.00;99.90;;;;;;4900426;29;20031;-90
2021/03/13 13:11:16;;;;;;;0.75;0.47;;;6.60;99.90;;;;;;4901374;29;20459;-90
2021/03/13 13:13:41;;;;;;;1.95;0.60;;;6.10;99.90;;;;;;4901367;29;20123;-90